createdAt,value
2023-04-13T03:47:16.592Z,91.00
2023-04-13T03:49:43.507Z,90.80
2023-04-13T03:52:10.746Z,91.00
2023-04-13T03:54:38.070Z,91.00
2023-04-13T03:57:05.085Z,90.90
2023-04-13T03:59:32.031Z,90.50
2023-04-13T04:01:58.973Z,90.60
2023-04-13T04:04:25.967Z,90.40
2023-04-13T04:06:52.919Z,90.20
2023-04-13T04:09:19.842Z,90.30
2023-04-13T04:11:46.779Z,90.40
2023-04-13T04:14:13.689Z,90.30
2023-04-13T04:16:40.737Z,90.40
2023-04-13T04:19:07.790Z,90.10
2023-04-13T04:21:34.836Z,89.80
2023-04-13T04:24:02.282Z,90.00
2023-04-13T04:26:30.171Z,90.00
2023-04-13T04:29:02.649Z,90.10
2023-04-13T04:31:36.812Z,90.10
2023-04-13T04:34:04.635Z,90.40
2023-04-13T04:36:31.666Z,90.50
2023-04-13T04:39:02.448Z,90.60
2023-04-13T04:41:31.424Z,90.30
2023-04-13T04:44:02.653Z,90.50
2023-04-13T04:46:29.907Z,90.20
2023-04-13T04:49:00.794Z,89.90
2023-04-13T04:51:28.672Z,90.10
2023-04-13T04:53:57.935Z,90.10
2023-04-13T04:56:25.179Z,90.00
2023-04-13T04:58:52.679Z,90.40
2023-04-13T05:01:22.739Z,90.30
2023-04-13T05:03:49.860Z,90.30
2023-04-13T05:06:16.757Z,89.90
2023-04-13T05:08:44.785Z,90.00
2023-04-13T05:11:11.725Z,89.90
2023-04-13T05:13:38.680Z,90.10
2023-04-13T05:16:05.895Z,90.30
2023-04-13T05:18:42.810Z,90.20
2023-04-13T05:21:09.700Z,90.00
2023-04-13T05:23:36.642Z,89.90
2023-04-13T05:26:03.590Z,89.80
2023-04-13T05:28:30.575Z,88.90
2023-04-13T05:31:01.696Z,89.70
2023-04-13T05:33:29.322Z,89.20
2023-04-13T05:35:59.142Z,89.80
2023-04-13T05:38:26.062Z,89.90
2023-04-13T05:40:53.623Z,89.30
2023-04-13T05:43:22.556Z,88.90
2023-04-13T05:45:50.797Z,89.40
2023-04-13T05:48:17.720Z,88.90
2023-04-13T05:50:44.627Z,89.50
2023-04-13T05:53:11.528Z,90.00
2023-04-13T05:55:40.156Z,90.10
2023-04-13T05:58:08.679Z,90.10
2023-04-13T06:00:35.659Z,90.00
2023-04-13T06:03:03.153Z,90.10
2023-04-13T06:05:31.818Z,90.10
2023-04-13T06:07:59.627Z,89.90
2023-04-13T06:10:26.829Z,90.00
2023-04-13T06:12:54.190Z,90.10
2023-04-13T06:15:21.643Z,90.30
2023-04-13T06:17:50.891Z,90.00
2023-04-13T06:20:17.845Z,89.70
2023-04-13T06:22:44.775Z,90.10
2023-04-13T06:25:12.444Z,89.70
2023-04-13T06:27:39.531Z,89.60
2023-04-13T06:30:07.201Z,89.60
2023-04-13T06:32:34.124Z,88.80
2023-04-13T06:35:01.097Z,90.00
2023-04-13T06:37:28.727Z,88.50
2023-04-13T06:39:56.790Z,89.90
2023-04-13T06:42:23.857Z,89.70
2023-04-13T06:44:51.073Z,89.50
2023-04-13T06:47:17.967Z,88.50
2023-04-13T06:49:44.914Z,89.20
2023-04-13T06:52:11.814Z,89.60
2023-04-13T06:54:38.775Z,89.10
2023-04-13T06:57:05.745Z,90.00
2023-04-13T06:59:33.086Z,89.40
2023-04-13T07:02:00.243Z,89.60
2023-04-13T07:04:29.706Z,88.20
2023-04-13T07:06:58.516Z,89.20
2023-04-13T07:09:25.690Z,90.10
2023-04-13T07:11:52.574Z,89.90
2023-04-13T07:14:19.454Z,89.40
2023-04-13T07:16:46.357Z,89.40
2023-04-13T07:19:13.431Z,88.80
2023-04-13T07:21:40.471Z,89.30
2023-04-13T07:24:07.515Z,88.90
2023-04-13T07:26:34.437Z,88.90
2023-04-13T07:29:01.489Z,88.30
2023-04-13T07:31:28.659Z,88.60
2023-04-13T07:33:55.851Z,89.50
2023-04-13T07:36:23.494Z,88.70
2023-04-13T07:38:50.416Z,87.80
2023-04-13T07:41:21.990Z,88.80
2023-04-13T07:43:48.946Z,88.00
2023-04-13T07:46:16.246Z,87.30
2023-04-13T07:48:44.550Z,87.70
2023-04-13T07:51:18.225Z,87.80
2023-04-13T07:53:45.157Z,87.30
2023-04-13T07:56:12.141Z,87.80
2023-04-13T07:58:39.133Z,87.80
2023-04-13T08:01:06.406Z,87.80
2023-04-13T08:03:35.320Z,87.30
2023-04-13T08:06:06.240Z,87.20
2023-04-13T08:08:33.499Z,87.80
2023-04-13T08:11:00.438Z,87.60
2023-04-13T08:13:28.201Z,86.10
2023-04-13T08:15:57.929Z,84.90
2023-04-13T08:18:26.733Z,86.20
2023-04-13T08:20:54.923Z,85.60
2023-04-13T08:23:22.387Z,85.90
2023-04-13T08:25:49.473Z,85.90
2023-04-13T08:28:16.473Z,85.30
2023-04-13T08:30:43.612Z,84.20
2023-04-13T08:33:10.572Z,84.90
2023-04-13T08:35:39.351Z,84.90
2023-04-13T08:38:09.263Z,85.50
2023-04-13T08:40:39.683Z,85.70
2023-04-13T08:43:07.235Z,85.30
2023-04-13T08:45:34.374Z,85.30
2023-04-13T08:48:01.925Z,84.50
2023-04-13T08:50:29.084Z,83.20
2023-04-13T08:52:56.207Z,84.30
2023-04-13T08:55:23.134Z,84.20
2023-04-13T08:57:51.617Z,84.50
2023-04-13T09:00:19.426Z,84.10
2023-04-13T09:03:00.517Z,84.20
2023-04-13T09:05:31.549Z,83.70
2023-04-13T09:08:01.610Z,84.10
2023-04-13T09:10:28.679Z,85.00
2023-04-13T09:12:55.984Z,84.30
2023-04-13T09:15:23.123Z,83.80
2023-04-13T09:17:50.493Z,83.30
2023-04-13T09:20:22.120Z,84.20
2023-04-13T09:22:52.420Z,83.30
2023-04-13T09:25:29.266Z,81.90
2023-04-13T09:27:56.723Z,83.30
2023-04-13T09:30:24.575Z,82.40
2023-04-13T09:33:04.836Z,83.00
2023-04-13T09:35:32.356Z,82.10
2023-04-13T09:37:59.969Z,82.80
2023-04-13T09:40:27.864Z,83.90
2023-04-13T09:42:59.208Z,83.20
2023-04-13T09:45:38.862Z,82.60
2023-04-13T09:48:15.525Z,83.10
2023-04-13T09:50:42.486Z,83.20
2023-04-13T09:53:12.353Z,82.90
2023-04-13T09:55:39.534Z,82.40
2023-04-13T09:58:10.257Z,82.80
2023-04-13T10:00:38.811Z,82.30
2023-04-13T10:03:06.564Z,82.80
2023-04-13T10:05:39.271Z,83.30
2023-04-13T10:08:12.285Z,82.70
2023-04-13T10:10:42.199Z,82.40
2023-04-13T10:13:21.635Z,82.00
2023-04-13T10:16:04.304Z,82.40
2023-04-13T10:18:37.287Z,82.00
2023-04-13T10:21:05.191Z,81.70
2023-04-13T10:23:33.484Z,81.50
2023-04-13T10:26:03.709Z,81.10
2023-04-13T10:28:41.477Z,81.20
2023-04-13T10:31:08.839Z,81.30
2023-04-13T10:33:46.360Z,80.70
2023-04-13T10:36:13.262Z,81.70
2023-04-13T10:38:43.632Z,81.70
2023-04-13T10:41:10.624Z,80.60
2023-04-13T10:43:37.550Z,81.00
2023-04-13T10:46:05.425Z,82.40
2023-04-13T10:48:32.337Z,83.80
2023-04-13T10:50:59.711Z,85.80
2023-04-13T10:53:30.324Z,86.90
2023-04-13T10:55:57.843Z,86.80
2023-04-13T10:58:26.445Z,86.10
2023-04-13T11:00:54.760Z,87.00
2023-04-13T11:03:22.153Z,88.60
2023-04-13T11:05:57.610Z,90.20
2023-04-13T11:08:24.901Z,89.80
2023-04-13T11:10:55.344Z,90.00
2023-04-13T11:13:25.225Z,90.30
2023-04-13T11:15:59.978Z,90.00
2023-04-13T11:18:27.504Z,90.00
2023-04-13T11:20:54.621Z,89.60
2023-04-13T11:23:24.013Z,90.00
2023-04-13T11:25:55.914Z,89.70
2023-04-13T11:28:23.244Z,88.20
2023-04-13T11:30:56.464Z,86.20
2023-04-13T11:33:26.864Z,87.40
2023-04-13T11:35:54.877Z,87.50
2023-04-13T11:38:21.849Z,85.80
2023-04-13T11:40:49.739Z,86.10
2023-04-13T11:43:19.474Z,85.00
2023-04-13T11:45:49.146Z,84.80
2023-04-13T11:48:17.425Z,85.00
2023-04-13T11:50:44.369Z,85.20
2023-04-13T11:53:11.443Z,84.60
2023-04-13T11:58:10.119Z,84.50
2023-04-13T12:00:38.676Z,85.10
2023-04-13T12:03:24.464Z,85.50
2023-04-13T12:06:02.300Z,84.90
2023-04-13T12:08:30.529Z,85.00
2023-04-13T12:11:24.944Z,82.60
2023-04-13T12:14:05.609Z,84.20
2023-04-13T12:17:03.184Z,83.20
2023-04-13T12:19:27.846Z,84.30
2023-04-13T12:21:56.819Z,85.50
2023-04-13T12:24:32.819Z,84.60
2023-04-13T12:29:37.590Z,85.70
2023-04-13T12:32:08.991Z,85.20
2023-04-13T12:34:36.489Z,84.60
2023-04-13T12:37:04.178Z,85.00
2023-04-13T12:39:31.137Z,84.90
2023-04-13T12:41:58.031Z,82.00
2023-04-13T12:44:25.016Z,79.30
2023-04-13T12:46:51.977Z,78.50
2023-04-13T12:49:18.897Z,80.00
2023-04-13T12:51:46.073Z,76.70
2023-04-13T12:54:17.845Z,77.20
2023-04-13T12:56:44.756Z,77.60
2023-04-13T12:59:11.667Z,77.50
2023-04-13T13:01:38.732Z,77.70
2023-04-13T13:04:06.118Z,79.30
2023-04-13T13:06:34.258Z,78.70
2023-04-13T13:09:01.426Z,79.70
2023-04-13T13:11:28.550Z,80.10
2023-04-13T13:13:55.794Z,80.40
2023-04-13T13:16:22.812Z,80.90
2023-04-13T13:19:00.837Z,81.80
2023-04-13T13:21:27.977Z,81.60
2023-04-13T13:23:54.999Z,80.60
2023-04-13T13:26:24.568Z,79.70
2023-04-13T13:28:54.298Z,78.50
2023-04-13T13:31:21.334Z,79.00
2023-04-13T13:33:48.370Z,79.10
2023-04-13T13:36:15.513Z,78.80
2023-04-13T13:38:43.193Z,79.40
2023-04-13T13:41:10.415Z,77.90
2023-04-13T13:43:37.466Z,78.20
2023-04-13T13:46:05.706Z,78.30
2023-04-13T13:48:32.807Z,77.10
2023-04-13T13:51:00.285Z,76.60
2023-04-13T13:53:27.354Z,76.80
2023-04-13T13:55:55.385Z,76.50
2023-04-13T13:58:22.462Z,77.20
2023-04-13T14:00:50.414Z,76.10
2023-04-13T14:03:17.523Z,74.60
2023-04-13T14:05:44.784Z,75.50
2023-04-13T14:08:11.857Z,75.50
2023-04-13T14:10:39.093Z,76.20
2023-04-13T14:13:06.028Z,80.40
2023-04-13T14:15:33.033Z,85.20
2023-04-13T14:18:09.155Z,87.00
2023-04-13T14:20:38.936Z,87.40
2023-04-13T14:23:06.459Z,89.10
2023-04-13T14:25:33.440Z,90.30
2023-04-13T14:28:00.916Z,90.70
2023-04-13T14:30:28.579Z,91.10
2023-04-13T14:32:56.594Z,92.60
2023-04-13T14:35:24.022Z,92.80
2023-04-13T14:37:51.321Z,92.60
2023-04-13T14:40:21.835Z,92.70
2023-04-13T14:42:50.869Z,92.80
2023-04-13T14:45:18.404Z,92.80
2023-04-13T14:47:45.491Z,92.30
2023-04-13T14:50:12.669Z,92.40
2023-04-13T14:52:42.972Z,92.60
2023-04-13T14:55:10.408Z,92.90
2023-04-13T14:57:37.977Z,92.70
2023-04-13T15:00:08.457Z,92.50
2023-04-13T15:02:37.107Z,93.00
2023-04-13T15:05:06.586Z,92.90
2023-04-13T15:07:33.735Z,93.00
2023-04-13T15:10:04.242Z,92.70
2023-04-13T15:12:32.174Z,92.50
2023-04-13T15:14:59.140Z,92.30
2023-04-13T15:17:26.478Z,92.60
2023-04-13T15:19:53.423Z,92.90
2023-04-13T15:22:20.411Z,92.90
2023-04-13T15:24:47.466Z,92.80
2023-04-13T15:27:14.469Z,92.50
2023-04-13T15:29:41.615Z,91.70
2023-04-13T15:32:08.525Z,91.30
2023-04-13T15:34:35.741Z,91.90
2023-04-13T15:37:02.726Z,92.10
2023-04-13T15:39:29.676Z,92.20
2023-04-13T15:41:57.731Z,92.40
2023-04-13T15:44:24.822Z,92.60
2023-04-13T15:46:51.768Z,92.60
2023-04-13T15:49:18.719Z,92.60
2023-04-13T15:51:45.636Z,92.60
2023-04-13T15:54:12.511Z,92.70
2023-04-13T15:56:39.442Z,92.80
2023-04-13T15:59:06.747Z,92.80
2023-04-13T16:01:49.814Z,92.70
2023-04-13T16:04:17.157Z,92.80
2023-04-13T16:06:44.183Z,92.70
2023-04-13T16:09:11.164Z,92.70
2023-04-13T16:11:42.102Z,92.70
2023-04-13T16:14:09.133Z,92.60
2023-04-13T16:16:46.592Z,92.50
2023-04-13T16:19:13.892Z,92.60
2023-04-13T16:21:43.511Z,92.30
2023-04-13T16:24:10.710Z,92.20
2023-04-13T16:26:38.217Z,92.30
2023-04-13T16:29:05.275Z,92.60
2023-04-13T16:31:32.434Z,92.90
2023-04-13T16:33:59.452Z,92.90
2023-04-13T16:36:27.139Z,92.40
2023-04-13T16:38:54.153Z,92.40
2023-04-13T16:41:21.143Z,92.80
2023-04-13T16:43:48.139Z,92.40
2023-04-13T16:46:15.291Z,92.20
2023-04-13T16:48:42.232Z,91.90
2023-04-13T16:51:09.168Z,92.50
2023-04-13T16:53:36.278Z,92.30
2023-04-13T16:56:03.303Z,92.20
2023-04-13T16:58:30.519Z,92.30
2023-04-13T17:00:57.487Z,92.40
2023-04-13T17:03:24.729Z,93.00
2023-04-13T17:05:52.044Z,93.10
2023-04-13T17:08:19.005Z,93.30
2023-04-13T17:10:46.162Z,92.80
2023-04-13T17:13:13.164Z,92.90
2023-04-13T17:15:40.065Z,92.60
2023-04-13T17:18:07.061Z,92.70
2023-04-13T17:20:34.801Z,91.70
2023-04-13T17:23:01.751Z,92.30
2023-04-13T17:25:28.729Z,92.60
2023-04-13T17:27:55.703Z,92.70
2023-04-13T17:30:22.713Z,93.10
2023-04-13T17:32:49.839Z,93.20
2023-04-13T17:35:16.856Z,93.20
2023-04-13T17:37:43.742Z,92.90
2023-04-13T17:40:10.944Z,93.40
2023-04-13T17:42:37.871Z,93.70
2023-04-13T17:45:05.942Z,93.80
2023-04-13T17:47:32.870Z,93.40
2023-04-13T17:50:00.067Z,93.60
2023-04-13T17:52:27.038Z,93.70
2023-04-13T17:54:54.081Z,93.70
2023-04-13T17:57:21.052Z,93.90
2023-04-13T17:59:47.964Z,94.00
2023-04-13T18:02:14.994Z,94.10
2023-04-13T18:04:41.983Z,94.00
2023-04-13T18:07:08.912Z,94.00
2023-04-13T18:09:35.817Z,93.80
2023-04-13T18:12:03.038Z,93.50
2023-04-13T18:14:29.940Z,93.50
2023-04-13T18:16:56.975Z,93.40
2023-04-13T18:19:24.554Z,93.20
2023-04-13T18:21:51.740Z,93.20
2023-04-13T18:24:18.638Z,93.60
2023-04-13T18:26:45.589Z,93.50
2023-04-13T18:29:13.945Z,93.30
2023-04-13T18:31:41.012Z,92.90
2023-04-13T18:34:10.402Z,93.00
2023-04-13T18:36:37.334Z,93.30
2023-04-13T18:39:04.330Z,93.50
2023-04-13T18:41:31.590Z,93.30
2023-04-13T18:43:58.822Z,93.60
2023-04-13T18:46:28.857Z,93.50
2023-04-13T18:48:55.937Z,93.30
2023-04-13T18:51:22.939Z,93.20
2023-04-13T18:53:50.086Z,93.30
2023-04-13T18:56:17.096Z,93.30
2023-04-13T18:58:44.832Z,93.30
2023-04-13T19:01:15.533Z,93.40
2023-04-13T19:03:42.713Z,93.10
2023-04-13T19:06:10.923Z,93.20
2023-04-13T19:08:38.227Z,93.40
2023-04-13T19:11:05.297Z,93.10
2023-04-13T19:13:32.208Z,93.10
2023-04-13T19:16:04.363Z,93.00
2023-04-13T19:18:31.537Z,92.90
2023-04-13T19:21:00.027Z,93.10
2023-04-13T19:23:27.167Z,93.00
2023-04-13T19:25:54.364Z,93.20
2023-04-13T19:28:21.258Z,93.40
2023-04-13T19:30:48.249Z,93.30
2023-04-13T19:33:15.209Z,93.40
2023-04-13T19:35:42.358Z,93.60
2023-04-13T19:38:09.675Z,93.80
2023-04-13T19:40:36.838Z,94.10
2023-04-13T19:43:03.713Z,93.50
2023-04-13T19:45:30.965Z,93.40
2023-04-13T19:47:58.030Z,93.50
2023-04-13T19:50:25.005Z,93.50
2023-04-13T19:52:52.987Z,93.40
2023-04-13T19:55:20.544Z,93.50
2023-04-13T19:57:47.966Z,93.40
2023-04-13T20:00:17.675Z,93.40
2023-04-13T20:02:46.903Z,93.50
2023-04-13T20:05:14.395Z,93.10
2023-04-13T20:07:41.596Z,93.10
2023-04-13T20:10:11.114Z,93.00
2023-04-13T20:12:38.530Z,93.10
2023-04-13T20:15:06.215Z,93.40
2023-04-13T20:17:33.214Z,93.40
2023-04-13T20:20:00.298Z,93.40
2023-04-13T20:22:27.339Z,93.40
2023-04-13T20:24:54.415Z,93.30
2023-04-13T20:27:22.608Z,93.40
2023-04-13T20:29:51.124Z,93.20
2023-04-13T20:32:18.130Z,93.20
2023-04-13T20:34:45.194Z,93.40
2023-04-13T20:37:14.304Z,93.30
2023-04-13T20:39:49.796Z,93.10
2023-04-13T20:42:18.134Z,93.10
2023-04-13T20:44:45.855Z,93.10
2023-04-13T20:47:16.034Z,93.00
2023-04-13T20:49:47.032Z,93.10
2023-04-13T20:52:14.121Z,93.30
2023-04-13T20:54:41.422Z,93.30
2023-04-13T20:57:09.242Z,93.10
2023-04-13T20:59:37.388Z,93.00
2023-04-13T21:02:04.861Z,93.00
2023-04-13T21:04:31.921Z,93.20
2023-04-13T21:07:02.120Z,93.00
2023-04-13T21:09:29.505Z,93.00
2023-04-13T21:11:56.957Z,92.90
2023-04-13T21:14:24.946Z,93.00
2023-04-13T21:16:52.498Z,92.80
2023-04-13T21:19:19.611Z,93.00
2023-04-13T21:21:46.648Z,92.90
2023-04-13T21:24:13.632Z,93.30
2023-04-13T21:26:40.710Z,93.10
2023-04-13T21:29:09.031Z,93.10
2023-04-13T21:31:36.281Z,93.10
2023-04-13T21:34:06.203Z,93.20
2023-04-13T21:39:03.529Z,93.10
2023-04-13T21:41:30.481Z,93.30
2023-04-13T21:43:57.527Z,93.10
2023-04-13T21:46:25.147Z,93.20
2023-04-13T21:48:52.151Z,93.30
2023-04-13T21:51:19.047Z,93.20
2023-04-13T21:53:46.030Z,93.30
2023-04-13T21:56:12.938Z,93.40
2023-04-13T21:58:40.879Z,93.40
2023-04-13T22:01:08.286Z,93.50
2023-04-13T22:03:38.843Z,93.40
2023-04-13T22:06:09.826Z,93.60
2023-04-13T22:08:37.066Z,93.60
2023-04-13T22:11:04.220Z,93.70
2023-04-13T22:13:31.306Z,93.70
2023-04-13T22:15:58.276Z,93.80
2023-04-13T22:18:26.433Z,93.50
2023-04-13T22:20:53.449Z,93.40
2023-04-13T22:23:20.383Z,93.40
2023-04-13T22:25:51.127Z,93.70
2023-04-13T22:28:18.070Z,93.60
2023-04-13T22:30:45.044Z,93.40
2023-04-13T22:33:11.916Z,93.40
2023-04-13T22:35:38.822Z,93.40
2023-04-13T22:38:05.983Z,93.50
2023-04-13T22:40:32.897Z,93.30
2023-04-13T22:42:59.877Z,93.30
2023-04-13T22:45:26.816Z,93.40
2023-04-13T22:47:53.858Z,93.20
2023-04-13T22:50:21.295Z,93.10
2023-04-13T22:52:48.302Z,93.40
2023-04-13T22:55:17.904Z,93.50
2023-04-13T22:57:45.397Z,93.80
